Time;durP1;ratioP1;P1;durP2;ratioP2;P2;SDS_P1;SDS_P2;PMS_P1;PMS_P2;Temp;Humidity;BMP_temperature;BMP_pressure;BME280_temperature;BME280_humidity;BME280_pressure;Samples;Min_cycle;Max_cycle;Signal;HPM_P1;HPM_P2
2022/07/09 00:01:02;;;;;;;4.20;2.60;;;;;;;18.54;67.37;99472.69;105002;1273;139720;-66
2022/07/09 00:03:29;;;;;;;2.70;1.90;;;;;;;18.52;67.48;99472.29;105108;1273;25679;-67
2022/07/09 00:05:56;;;;;;;3.00;2.20;;;;;;;18.51;67.51;99471.81;105100;1273;22748;-67
2022/07/09 00:08:23;;;;;;;3.40;2.30;;;;;;;18.50;67.46;99473.27;105032;1271;140347;-67
2022/07/09 00:10:50;;;;;;;3.20;1.80;;;;;;;18.50;67.62;99468.33;105140;1273;24451;-66
2022/07/09 00:13:16;;;;;;;3.50;1.90;;;;;;;18.47;67.69;99463.08;104952;1273;138248;-66
2022/07/09 00:15:43;;;;;;;4.70;2.20;;;;;;;18.44;67.91;99455.34;105057;1273;22560;-67
2022/07/09 00:18:10;;;;;;;3.00;2.40;;;;;;;18.41;68.00;99452.20;109334;1273;139919;-66
2022/07/09 00:20:37;;;;;;;2.20;2.00;;;;;;;18.38;68.11;99452.91;109478;1272;22460;-66
2022/07/09 00:23:04;;;;;;;6.50;2.10;;;;;;;18.38;68.27;99457.00;109453;1273;22424;-67
2022/07/09 00:25:31;;;;;;;3.20;2.30;;;;;;;18.38;68.40;99461.91;109321;1273;138742;-66
2022/07/09 00:27:58;;;;;;;5.20;2.50;;;;;;;18.39;68.42;99467.91;109379;1274;22450;-66
2022/07/09 00:30:25;;;;;;;3.50;2.10;;;;;;;18.40;68.39;99467.56;109330;1273;140221;-66
2022/07/09 00:32:52;;;;;;;6.00;2.60;;;;;;;18.42;68.29;99466.73;109434;1273;22431;-67
2022/07/09 00:35:18;;;;;;;3.20;2.10;;;;;;;18.44;68.46;99457.98;109554;1272;22457;-67
2022/07/09 00:37:45;;;;;;;3.40;2.20;;;;;;;18.48;68.33;99454.35;109285;1273;139187;-67
2022/07/09 00:40:12;;;;;;;3.00;2.20;;;;;;;18.50;68.28;99450.48;109445;1273;22435;-69
2022/07/09 00:42:39;;;;;;;4.80;2.60;;;;;;;18.52;68.16;99449.55;109305;1271;138441;-67
2022/07/09 00:45:06;;;;;;;6.00;3.00;;;;;;;18.54;68.22;99450.55;109511;1273;23901;-67
2022/07/09 00:47:33;;;;;;;4.60;2.70;;;;;;;18.56;68.22;99454.05;109420;1273;22542;-67
2022/07/09 00:50:00;;;;;;;3.70;2.70;;;;;;;18.58;68.06;99451.05;109249;1273;139261;-68
2022/07/09 00:52:27;;;;;;;5.40;3.40;;;;;;;18.59;68.08;99449.77;109409;1273;22531;-67
2022/07/09 00:54:54;;;;;;;5.30;2.70;;;;;;;18.61;68.10;99445.80;108434;1273;138906;-67
2022/07/09 00:57:22;;;;;;;7.30;2.90;;;;;;;18.62;68.07;99445.36;105119;1273;22724;-67
2022/07/09 00:59:49;;;;;;;4.70;2.80;;;;;;;18.63;68.14;99446.16;109398;1272;22459;-67
2022/07/09 01:02:15;;;;;;;3.70;2.80;;;;;;;18.64;68.09;99444.27;109262;1272;140011;-67
2022/07/09 01:04:42;;;;;;;3.40;2.80;;;;;;;18.66;68.09;99443.73;109229;1273;23140;-67
2022/07/09 01:07:09;;;;;;;5.30;2.60;;;;;;;18.66;68.12;99442.95;109225;1273;138794;-67
2022/07/09 01:09:36;;;;;;;3.00;2.50;;;;;;;18.66;68.07;99445.70;109379;1272;23383;-68
2022/07/09 01:12:03;;;;;;;3.50;2.40;;;;;;;18.66;68.04;99446.88;109456;1273;22249;-67
2022/07/09 01:14:30;;;;;;;3.30;2.30;;;;;;;18.67;68.07;99449.06;109348;1271;138714;-67
2022/07/09 01:16:58;;;;;;;3.30;2.60;;;;;;;18.66;68.04;99442.18;109485;1273;22482;-67
2022/07/09 01:19:26;;;;;;;3.90;2.40;;;;;;;18.68;68.02;99439.82;109387;1273;138017;-67
2022/07/09 01:21:53;;;;;;;3.40;2.10;;;;;;;18.67;68.17;99443.25;109441;1273;22477;-68
2022/07/09 01:24:21;;;;;;;4.30;2.20;;;;;;;18.66;68.31;99442.79;109324;1273;138645;-67
2022/07/09 01:26:48;;;;;;;4.20;2.30;;;;;;;18.66;68.25;99442.46;109478;1273;22440;-67
2022/07/09 01:29:14;;;;;;;4.70;2.10;;;;;;;18.66;68.41;99442.30;109500;1273;22466;-67
2022/07/09 01:31:41;;;;;;;3.10;2.30;;;;;;;18.65;68.41;99435.41;108411;1273;138364;-67
2022/07/09 01:34:08;;;;;;;5.90;2.70;;;;;;;18.64;68.42;99438.09;105096;1273;25443;-67
2022/07/09 01:36:35;;;;;;;2.90;2.20;;;;;;;18.64;68.53;99443.99;105167;1273;139793;-66
2022/07/09 01:39:02;;;;;;;3.20;2.70;;;;;;;18.62;68.55;99443.72;105134;1273;25390;-67
2022/07/09 01:41:30;;;;;;;3.90;2.10;;;;;;;18.61;68.61;99444.31;105096;1273;24382;-66
2022/07/09 01:43:57;;;;;;;3.20;2.30;;;;;;;18.59;68.84;99441.42;104977;1273;138981;-66
2022/07/09 01:46:24;;;;;;;3.20;2.50;;;;;;;18.56;69.02;99440.02;105105;1273;24310;-66
2022/07/09 01:48:51;;;;;;;2.50;2.30;;;;;;;18.53;69.22;99440.05;105106;1273;138198;-66
2022/07/09 01:51:18;;;;;;;3.40;2.50;;;;;;;18.48;69.32;99439.68;105191;1275;24260;-67
2022/07/09 01:53:45;;;;;;;2.80;2.50;;;;;;;18.42;69.59;99437.05;105171;1273;22742;-66
2022/07/09 01:56:12;;;;;;;4.50;3.30;;;;;;;18.40;70.01;99436.83;105080;1273;138289;-66
2022/07/09 01:58:39;;;;;;;7.30;2.50;;;;;;;18.36;70.33;99432.05;106561;1273;24100;-66
2022/07/09 02:01:06;;;;;;;5.10;2.50;;;;;;;18.30;70.46;99431.14;108736;1273;138406;-66
2022/07/09 02:03:33;;;;;;;4.20;2.80;;;;;;;18.25;70.61;99437.45;107994;1274;24265;-68
2022/07/09 02:06:00;;;;;;;4.80;3.00;;;;;;;18.20;70.78;99445.36;105441;1273;23999;-66
2022/07/09 02:08:26;;;;;;;5.70;3.50;;;;;;;18.17;70.80;99449.83;105240;1273;138073;-66
2022/07/09 02:10:54;;;;;;;5.60;3.20;;;;;;;18.14;70.77;99446.46;105255;1273;22592;-67
2022/07/09 02:13:21;;;;;;;5.00;3.40;;;;;;;18.13;70.87;99440.21;105147;1273;138576;-66
2022/07/09 02:15:48;;;;;;;7.80;4.20;;;;;;;18.10;70.85;99440.05;105133;1273;24312;-67
2022/07/09 02:18:14;;;;;;;4.50;3.10;;;;;;;18.05;70.89;99439.70;105076;1273;138362;-66
2022/07/09 02:20:41;;;;;;;4.80;2.90;;;;;;;18.00;71.19;99444.45;105151;1273;25491;-67
2022/07/09 02:23:08;;;;;;;6.40;3.70;;;;;;;17.97;71.41;99450.90;105205;1273;22892;-67
2022/07/09 02:25:35;;;;;;;3.70;2.70;;;;;;;17.96;71.46;99459.31;105104;1273;138414;-67
2022/07/09 02:28:02;;;;;;;6.60;2.70;;;;;;;17.96;71.57;99480.59;105202;1273;24234;-66
2022/07/09 02:30:29;;;;;;;5.60;2.90;;;;;;;17.97;71.71;99506.16;105067;1273;139265;-66
2022/07/09 02:32:56;;;;;;;3.90;3.30;;;;;;;17.96;71.85;99528.95;105117;1273;24360;-66
2022/07/09 02:35:22;;;;;;;7.40;3.10;;;;;;;17.95;71.95;99542.75;105172;1273;22600;-67
2022/07/09 02:37:49;;;;;;;4.90;3.30;;;;;;;17.94;72.03;99546.95;105048;1273;138012;-66
2022/07/09 02:40:16;;;;;;;4.60;3.20;;;;;;;17.94;72.08;99538.30;105106;1273;23141;-67
2022/07/09 02:42:43;;;;;;;4.20;3.10;;;;;;;17.95;72.23;99521.48;105058;1274;139901;-67
2022/07/09 02:45:10;;;;;;;4.90;3.10;;;;;;;17.96;72.37;99507.66;105156;1273;24230;-67
2022/07/09 02:47:36;;;;;;;10.00;3.10;;;;;;;17.98;72.30;99501.24;105016;1273;25264;-67
2022/07/09 02:50:04;;;;;;;4.70;3.10;;;;;;;17.99;72.46;99508.43;105153;1273;138442;-66
2022/07/09 02:52:31;;;;;;;5.30;2.90;;;;;;;18.01;72.57;99511.98;109446;1273;23347;-67
2022/07/09 02:54:58;;;;;;;4.80;3.60;;;;;;;18.03;72.71;99514.05;109348;1272;141056;-67
2022/07/09 02:57:25;;;;;;;4.60;3.00;;;;;;;18.03;72.73;99512.11;109418;1273;22240;-67
2022/07/09 02:59:52;;;;;;;3.80;2.80;;;;;;;18.04;72.81;99510.46;109494;1273;22479;-67
2022/07/09 03:02:18;;;;;;;5.10;2.40;;;;;;;18.05;72.85;99521.59;109183;1274;138167;-67
2022/07/09 03:04:45;;;;;;;6.40;2.70;;;;;;;18.07;72.89;99529.48;109487;1272;22445;-66
2022/07/09 03:07:14;;;;;;;4.30;2.70;;;;;;;18.10;72.97;99536.89;109321;1273;138619;-66
2022/07/09 03:09:40;;;;;;;5.30;3.30;;;;;;;18.13;72.77;99542.89;109520;1273;22538;-66
2022/07/09 03:12:08;;;;;;;3.70;2.70;;;;;;;18.14;72.75;99545.20;109473;1273;22474;-67
2022/07/09 03:14:34;;;;;;;5.80;3.30;;;;;;;18.16;72.80;99547.59;109514;1272;22514;-66
2022/07/09 03:17:01;;;;;;;3.50;2.50;;;;;;;18.17;72.80;99547.02;109425;1273;22450;-66
2022/07/09 03:19:28;;;;;;;6.20;2.90;;;;;;;18.19;72.90;99553.78;109408;1273;138074;-66
2022/07/09 03:21:55;;;;;;;6.10;2.90;;;;;;;18.20;72.78;99555.36;109551;1273;22494;-67
2022/07/09 03:24:22;;;;;;;5.20;2.80;;;;;;;18.21;72.92;99556.28;109351;1273;141619;-66
2022/07/09 03:26:49;;;;;;;6.50;2.90;;;;;;;18.21;72.97;99559.59;109245;1272;212111;-67
2022/07/09 03:30:20;;;;;;;5.40;3.50;;;;;;;18.23;72.94;99565.02;101839;1309;544990;-66
2022/07/09 03:32:47;;;;;;;4.30;2.90;;;;;;;18.21;72.78;99570.46;103676;1290;23878;-66
2022/07/09 03:35:14;;;;;;;3.50;3.20;;;;;;;18.21;72.86;99572.05;107797;1290;22599;-66
2022/07/09 03:37:41;;;;;;;3.30;3.00;;;;;;;18.21;72.95;99571.63;103585;1290;138397;-67
2022/07/09 03:40:08;;;;;;;4.10;2.90;;;;;;;18.20;72.95;99570.09;103847;1290;22629;-66
2022/07/09 03:42:35;;;;;;;6.00;3.30;;;;;;;18.20;72.97;99576.33;103571;1290;137767;-66
2022/07/09 03:45:02;;;;;;;4.20;3.50;;;;;;;18.21;72.85;99572.56;103951;1287;264079;-66
2022/07/09 03:47:29;;;;;;;3.50;3.10;;;;;;;18.20;72.89;99571.19;104079;1287;25283;-66
2022/07/09 03:49:55;;;;;;;4.50;3.10;;;;;;;18.20;73.20;99575.05;104110;1287;137701;-66
2022/07/09 03:52:22;;;;;;;7.60;3.10;;;;;;;18.20;73.21;99572.14;104204;1284;26041;-66
2022/07/09 03:54:49;;;;;;;5.00;3.00;;;;;;;18.21;73.40;99571.69;104059;1287;139013;-66
2022/07/09 03:57:16;;;;;;;3.90;2.70;;;;;;;18.21;73.51;99571.34;104151;1287;23048;-67
2022/07/09 03:59:43;;;;;;;3.80;3.20;;;;;;;18.21;73.57;99570.79;104142;1287;25483;-66
2022/07/09 04:02:09;;;;;;;4.80;3.00;;;;;;;18.22;73.78;99571.83;103599;1289;138134;-67
2022/07/09 04:04:40;;;;;;;4.00;3.10;;;;;;;18.21;73.67;99570.79;107991;1287;22507;-69
2022/07/09 04:07:07;;;;;;;6.60;3.10;;;;;;;18.21;73.81;99569.26;108109;1286;139526;-67
2022/07/09 04:09:33;;;;;;;7.90;4.00;;;;;;;18.20;73.68;99572.40;108338;1286;22441;-67
2022/07/09 04:12:00;;;;;;;4.30;3.90;;;;;;;18.20;73.71;99571.68;108346;1286;22488;-67
2022/07/09 04:14:27;;;;;;;6.40;3.80;;;;;;;18.20;73.72;99572.98;108134;1286;139802;-67
2022/07/09 04:16:54;;;;;;;6.00;3.70;;;;;;;18.18;73.99;99572.58;105202;1286;22577;-66
2022/07/09 04:19:21;;;;;;;5.30;3.30;;;;;;;18.16;74.10;99574.92;104033;1284;137680;-66
2022/07/09 04:21:47;;;;;;;4.20;3.50;;;;;;;18.17;74.17;99575.59;104147;1285;23741;-66
2022/07/09 04:24:17;;;;;;;6.40;3.70;;;;;;;18.17;74.29;99576.63;104065;1284;137911;-66
2022/07/09 04:26:44;;;;;;;6.50;4.00;;;;;;;18.16;74.25;99580.29;104241;1284;24515;-67
2022/07/09 04:29:10;;;;;;;5.10;4.00;;;;;;;18.14;74.38;99575.75;104320;1284;23144;-67
2022/07/09 04:31:37;;;;;;;4.10;3.70;;;;;;;18.12;74.32;99579.64;104291;1283;138288;-66
2022/07/09 04:34:04;;;;;;;7.10;3.30;;;;;;;18.08;74.64;99577.02;104216;1284;22723;-65
2022/07/09 04:36:31;;;;;;;5.40;3.50;;;;;;;18.03;74.81;99572.91;104174;1284;138356;-65
2022/07/09 04:38:58;;;;;;;6.70;4.00;;;;;;;17.99;74.84;99565.23;105122;1276;22552;-66
2022/07/09 04:41:25;;;;;;;6.40;3.60;;;;;;;17.93;75.10;99561.31;104990;1277;22580;-66
2022/07/09 04:43:51;;;;;;;5.50;3.90;;;;;;;17.87;75.30;99563.42;104875;1276;138310;-66
2022/07/09 04:46:19;;;;;;;6.80;4.20;;;;;;;17.85;75.54;99558.17;105058;1277;25411;-66
2022/07/09 04:48:46;;;;;;;6.50;3.80;;;;;;;17.84;75.65;99555.27;109203;1274;136906;-67
2022/07/09 04:51:13;;;;;;;5.00;3.30;;;;;;;17.82;75.73;99542.14;109581;1274;22437;-66
2022/07/09 04:53:41;;;;;;;4.70;3.40;;;;;;;17.79;75.93;99536.55;108923;1274;22966;-65
2022/07/09 04:56:08;;;;;;;6.80;3.60;;;;;;;17.79;75.97;99525.55;106529;1277;138879;-66
2022/07/09 04:58:36;;;;;;;6.20;3.70;;;;;;;17.79;75.97;99514.34;105138;1277;22602;-65
2022/07/09 05:01:04;;;;;;;5.10;3.90;;;;;;;17.79;75.80;99506.96;105092;1276;137705;-66
2022/07/09 05:03:31;;;;;;;4.30;3.70;;;;;;;17.77;75.82;99504.19;105065;1275;22634;-67
2022/07/09 05:05:58;;;;;;;6.90;3.90;;;;;;;17.77;75.70;99495.86;109271;1274;22538;-68
2022/07/09 05:08:25;;;;;;;8.40;3.70;;;;;;;17.77;75.82;99492.10;109154;1276;137566;-69
2022/07/09 05:10:52;;;;;;;5.30;4.00;;;;;;;17.79;75.80;99482.27;109167;1277;22461;-68
2022/07/09 05:13:19;;;;;;;4.90;4.20;;;;;;;17.81;75.65;99469.89;109346;1273;139853;-67
2022/07/09 05:15:46;;;;;;;6.00;3.80;;;;;;;17.82;75.45;99462.48;109369;1273;23270;-68
2022/07/09 05:18:12;;;;;;;5.00;3.70;;;;;;;17.84;75.26;99453.73;109232;1274;139268;-67
2022/07/09 05:20:42;;;;;;;4.80;3.80;;;;;;;17.85;75.14;99442.48;109370;1273;22477;-68
2022/07/09 05:23:09;;;;;;;7.60;3.70;;;;;;;17.87;75.10;99434.16;109348;1274;22968;-67
2022/07/09 05:25:35;;;;;;;5.90;3.80;;;;;;;17.88;74.87;99421.23;109287;1274;138805;-68
2022/07/09 05:28:02;;;;;;;5.60;3.40;;;;;;;17.89;74.59;99422.23;109354;1274;22742;-68
2022/07/09 05:30:29;;;;;;;4.50;3.50;;;;;;;17.89;74.20;99415.45;109212;1274;139657;-68
2022/07/09 05:32:56;;;;;;;4.10;3.40;;;;;;;17.90;74.08;99414.61;109262;1274;22518;-69
2022/07/09 05:35:23;;;;;;;6.30;2.90;;;;;;;17.91;73.94;99413.72;109294;1274;23045;-69
2022/07/09 05:37:49;;;;;;;4.80;3.40;;;;;;;17.92;73.60;99411.48;109144;1275;137823;-68
2022/07/09 05:40:16;;;;;;;6.00;3.30;;;;;;;17.93;73.12;99413.39;109353;1274;22445;-69
2022/07/09 05:42:43;;;;;;;5.50;3.50;;;;;;;17.95;72.89;99408.61;109189;1276;138166;-68
2022/07/09 05:45:10;;;;;;;4.10;3.00;;;;;;;17.96;72.71;99409.91;109290;1276;22438;-58
2022/07/09 05:47:37;;;;;;;6.20;3.30;;;;;;;17.96;72.56;99403.73;109311;1273;22465;-69
2022/07/09 05:50:04;;;;;;;6.10;3.40;;;;;;;17.97;72.58;99393.52;109072;1274;138442;-69
2022/07/09 05:52:31;;;;;;;6.60;3.20;;;;;;;17.99;72.55;99385.80;109215;1276;22356;-69
2022/07/09 05:54:58;;;;;;;4.10;3.10;;;;;;;18.01;72.13;99380.52;109149;1274;139652;-68
2022/07/09 05:57:31;;;;;;;11.10;4.80;;;;;;;18.03;72.05;99377.62;109205;1275;22461;-67
2022/07/09 05:59:58;;;;;;;5.60;2.80;;;;;;;18.04;72.12;99367.48;109249;1274;23673;-68
2022/07/09 06:02:25;;;;;;;6.00;3.50;;;;;;;18.04;72.18;99358.45;109060;1276;139015;-67
2022/07/09 06:04:52;;;;;;;7.00;2.80;;;;;;;18.03;72.45;99353.94;109275;1274;23524;-68
2022/07/09 06:07:19;;;;;;;3.90;3.00;;;;;;;18.03;72.51;99349.11;109194;1274;138745;-68
2022/07/09 06:09:45;;;;;;;5.90;2.90;;;;;;;18.03;72.86;99350.60;109209;1274;23209;-68
2022/07/09 06:12:12;;;;;;;4.40;3.00;;;;;;;18.02;72.94;99356.30;109192;1273;138061;-67
2022/07/09 06:14:39;;;;;;;3.40;2.70;;;;;;;18.01;73.02;99353.90;109280;1274;22549;-68
2022/07/09 06:17:06;;;;;;;3.80;2.90;;;;;;;18.00;72.77;99345.05;109202;1274;22446;-68
2022/07/09 06:19:36;;;;;;;5.80;3.10;;;;;;;17.99;72.46;99344.12;109166;1273;138247;-68
2022/07/09 06:22:03;;;;;;;8.50;2.90;;;;;;;17.98;72.55;99344.59;109319;1273;22448;-68
2022/07/09 06:24:30;;;;;;;3.60;2.70;;;;;;;17.96;72.74;99353.34;109194;1274;138022;-67
2022/07/09 06:26:57;;;;;;;6.90;2.90;;;;;;;17.95;72.62;99357.28;109331;1274;23082;-68
2022/07/09 06:29:24;;;;;;;3.10;2.80;;;;;;;17.94;72.66;99352.17;109298;1273;23126;-68
2022/07/09 06:31:50;;;;;;;3.30;2.50;;;;;;;17.95;72.66;99345.65;109155;1274;139609;-68
2022/07/09 06:34:18;;;;;;;3.70;2.70;;;;;;;17.94;72.61;99339.88;109187;1274;22456;-69
2022/07/09 06:36:45;;;;;;;8.50;3.00;;;;;;;17.94;72.53;99345.55;109258;1273;139997;-68
2022/07/09 06:42:06;;;;;;;4.80;3.10;;;;;;;17.95;72.50;99359.44;109243;1274;22426;-68
2022/07/09 06:44:34;;;;;;;5.10;2.40;;;;;;;17.95;72.83;99368.63;109176;1274;23430;-69
2022/07/09 06:47:01;;;;;;;4.90;2.70;;;;;;;17.97;72.88;99375.65;109232;1274;22476;-69
2022/07/09 06:49:28;;;;;;;4.30;2.60;;;;;;;17.98;73.16;99381.86;107579;1275;138906;-68
2022/07/09 06:51:55;;;;;;;4.70;3.00;;;;;;;18.00;73.27;99386.62;105044;1274;22553;-67
2022/07/09 06:54:22;;;;;;;3.50;2.90;;;;;;;18.02;73.50;99390.01;104585;1277;138924;-69
2022/07/09 06:56:49;;;;;;;4.40;2.60;;;;;;;18.03;73.54;99392.42;105040;1274;26909;-68
2022/07/09 06:59:18;;;;;;;3.70;3.00;;;;;;;18.03;73.80;99397.54;104833;1277;22717;-67
2022/07/09 07:01:45;;;;;;;5.80;3.40;;;;;;;18.03;74.02;99395.98;109029;1274;139030;-68
2022/07/09 07:04:12;;;;;;;5.50;3.20;;;;;;;18.02;74.32;99388.55;109250;1274;22447;-69
2022/07/09 07:06:43;;;;;;;3.60;3.00;;;;;;;18.04;74.65;99385.14;109103;1274;137828;-68
2022/07/09 07:09:10;;;;;;;6.30;3.50;;;;;;;18.05;74.97;99384.40;109164;1274;23158;-68
2022/07/09 07:11:36;;;;;;;4.30;3.20;;;;;;;18.06;75.24;99388.51;109423;1273;22575;-68
2022/07/09 07:14:03;;;;;;;5.50;3.30;;;;;;;18.07;75.68;99389.97;109122;1274;138738;-68
2022/07/09 07:16:30;;;;;;;3.20;2.90;;;;;;;18.07;76.01;99387.34;109048;1274;22516;-68
2022/07/09 07:18:57;;;;;;;5.00;3.50;;;;;;;18.06;76.26;99378.14;109057;1276;138783;-68
2022/07/09 07:21:23;;;;;;;4.90;3.60;;;;;;;18.04;76.65;99374.77;109248;1274;22555;-68
2022/07/09 07:23:50;;;;;;;3.90;3.60;;;;;;;18.03;77.12;99367.08;109208;1276;23207;-69
2022/07/09 07:26:17;;;;;;;4.40;3.20;;;;;;;18.01;77.46;99365.86;109112;1274;138256;-68
2022/07/09 07:28:44;;;;;;;6.80;4.50;;;;;;;17.99;77.64;99375.16;109205;1274;22494;-68
2022/07/09 07:31:11;;;;;;;6.80;4.20;;;;;;;17.98;78.02;99383.80;109146;1274;138558;-68
2022/07/09 07:33:38;;;;;;;5.00;3.40;;;;;;;17.96;78.28;99386.41;109248;1276;23590;-67
2022/07/09 07:36:05;;;;;;;4.60;3.10;;;;;;;17.95;78.45;99390.52;109207;1276;22425;-68
2022/07/09 07:38:36;;;;;;;5.90;3.30;;;;;;;17.95;78.52;99389.09;109061;1275;139752;-67
2022/07/09 07:41:03;;;;;;;5.60;2.90;;;;;;;17.94;78.78;99380.23;109266;1274;22529;-67
2022/07/09 07:43:30;;;;;;;6.20;2.80;;;;;;;17.93;78.97;99379.27;109191;1274;138101;-66
2022/07/09 07:45:57;;;;;;;8.00;3.40;;;;;;;17.92;79.34;99371.84;109607;1274;22258;-66
2022/07/09 07:48:30;;;;;;;3.50;2.80;;;;;;;17.92;79.31;99367.10;109297;1273;139974;-68
2022/07/09 07:50:58;;;;;;;8.40;3.10;;;;;;;17.92;79.37;99359.92;106501;1273;22547;-66
2022/07/09 07:53:25;;;;;;;3.60;2.50;;;;;;;17.91;79.34;99346.23;105025;1274;23634;-66
2022/07/09 07:55:52;;;;;;;5.10;3.10;;;;;;;17.89;79.03;99345.45;104961;1276;140173;-66
2022/07/09 07:58:19;;;;;;;4.90;2.80;;;;;;;17.86;79.02;99342.94;104914;1274;22926;-65
2022/07/09 08:00:45;;;;;;;4.30;2.90;;;;;;;17.84;79.06;99336.38;104848;1274;138416;-66
2022/07/09 08:03:12;;;;;;;5.50;2.60;;;;;;;17.84;79.25;99335.38;104870;1275;22711;-66
2022/07/09 08:05:39;;;;;;;5.80;2.90;;;;;;;17.82;79.38;99331.05;104851;1275;22757;-64
2022/07/09 08:08:06;;;;;;;5.30;3.10;;;;;;;17.81;79.26;99329.09;104953;1273;138157;-65
2022/07/09 08:10:33;;;;;;;11.80;3.40;;;;;;;17.82;79.45;99320.27;104831;1276;25270;-66
2022/07/09 08:13:02;;;;;;;4.30;2.90;;;;;;;17.82;79.46;99321.70;104757;1276;140130;-67
2022/07/09 08:15:29;;;;;;;5.70;3.00;;;;;;;17.82;79.61;99326.48;104990;1276;22838;-67
2022/07/09 08:17:55;;;;;;;5.10;2.70;;;;;;;17.83;79.30;99329.99;105008;1276;24307;-67
2022/07/09 08:20:22;;;;;;;6.90;3.30;;;;;;;17.85;79.22;99325.05;104770;1274;138191;-68
2022/07/09 08:22:49;;;;;;;3.60;2.80;;;;;;;17.87;79.16;99324.36;104892;1272;25281;-67
2022/07/09 08:25:16;;;;;;;6.70;2.80;;;;;;;17.88;78.85;99314.77;104905;1274;138312;-66
2022/07/09 08:27:43;;;;;;;2.80;2.40;;;;;;;17.88;78.80;99311.67;105148;1274;24397;-66
2022/07/09 08:30:10;;;;;;;9.00;3.60;;;;;;;17.92;78.56;99313.79;104759;1273;139376;-66
2022/07/09 08:32:38;;;;;;;9.80;2.70;;;;;;;17.94;78.41;99308.41;104919;1274;24293;-67
2022/07/09 08:35:06;;;;;;;5.90;2.60;;;;;;;17.96;78.28;99318.79;104991;1273;22587;-67
2022/07/09 08:37:33;;;;;;;4.80;2.40;;;;;;;17.97;78.08;99317.31;104870;1274;139067;-67
2022/07/09 08:40:05;;;;;;;8.30;2.50;;;;;;;18.01;78.17;99323.09;109251;1274;22425;-67
2022/07/09 08:42:31;;;;;;;3.80;2.30;;;;;;;18.05;78.10;99326.05;109098;1274;140907;-66
2022/07/09 08:44:58;;;;;;;5.40;2.50;;;;;;;18.11;77.73;99326.42;109283;1274;22268;-67
2022/07/09 08:47:25;;;;;;;3.90;2.30;;;;;;;18.16;77.31;99320.51;109267;1273;22572;-67
2022/07/09 08:49:57;;;;;;;5.40;2.20;;;;;;;18.22;77.10;99317.10;109108;1274;138214;-66
2022/07/09 08:52:24;;;;;;;3.70;2.10;;;;;;;18.28;76.75;99313.82;109171;1274;22576;-67
2022/07/09 08:54:52;;;;;;;4.50;2.20;;;;;;;18.34;76.69;99313.42;109226;1273;140181;-67
2022/07/09 08:57:24;;;;;;;4.10;2.40;;;;;;;18.40;76.39;99310.42;109323;1274;23365;-67
2022/07/09 08:59:51;;;;;;;4.00;2.50;;;;;;;18.46;76.29;99312.80;109315;1273;22449;-67
2022/07/09 09:02:20;;;;;;;5.00;2.70;;;;;;;18.52;76.03;99312.44;109115;1274;140033;-67
2022/07/09 09:04:47;;;;;;;8.50;2.50;;;;;;;18.57;75.74;99315.84;109233;1276;22415;-67
2022/07/09 09:07:18;;;;;;;4.70;2.30;;;;;;;18.62;75.49;99316.39;109155;1273;137980;-67
2022/07/09 09:09:45;;;;;;;7.60;3.60;;;;;;;18.67;75.11;99319.89;109285;1273;23606;-67
2022/07/09 09:12:13;;;;;;;3.70;2.40;;;;;;;18.71;74.70;99317.10;109135;1274;139265;-66
2022/07/09 09:14:47;;;;;;;5.90;2.80;;;;;;;18.76;74.56;99313.39;109251;1276;22520;-67
2022/07/09 09:17:14;;;;;;;11.80;8.50;;;;;;;18.80;74.25;99312.43;109183;1274;22423;-67
2022/07/09 09:19:41;;;;;;;6.80;3.80;;;;;;;18.86;74.65;99316.10;109205;1274;140217;-66
2022/07/09 09:22:09;;;;;;;5.40;2.70;;;;;;;18.90;74.39;99315.14;109218;1274;23236;-73
2022/07/09 09:24:36;;;;;;;4.10;3.20;;;;;;;18.94;74.19;99305.81;109187;1273;138726;-71
2022/07/09 09:27:03;;;;;;;7.50;5.00;;;;;;;18.98;73.97;99306.73;109241;1274;22563;-71
2022/07/09 09:29:30;;;;;;;4.50;3.70;;;;;;;19.03;73.71;99308.07;109421;1272;22361;-71
2022/07/09 09:31:57;;;;;;;6.00;3.30;;;;;;;19.06;73.08;99300.39;109000;1274;140667;-71
2022/07/09 09:34:24;;;;;;;4.80;3.70;;;;;;;19.07;72.59;99293.25;109318;1274;22488;-69
2022/07/09 09:36:52;;;;;;;5.10;2.50;;;;;;;19.05;72.19;99293.34;109324;1272;138972;-70
2022/07/09 09:39:21;;;;;;;5.80;2.30;;;;;;;19.04;71.87;99287.36;109292;1274;23576;-70
2022/07/09 09:41:52;;;;;;;6.20;2.40;;;;;;;19.01;71.76;99290.39;109358;1273;22425;-70
2022/07/09 09:44:20;;;;;;;4.80;2.70;;;;;;;18.98;71.67;99290.45;109233;1273;140834;-70
2022/07/09 09:46:47;;;;;;;4.50;2.20;;;;;;;18.95;71.73;99281.16;109381;1274;22451;-70
2022/07/09 09:49:15;;;;;;;4.30;2.30;;;;;;;18.93;71.93;99284.68;109239;1274;139891;-70
2022/07/09 09:52:04;;;;;;;6.20;2.80;;;;;;;18.92;72.04;99284.38;109424;1274;22487;-70
2022/07/09 09:54:32;;;;;;;4.60;3.70;;;;;;;18.91;72.20;99282.27;109149;1274;139788;-70
2022/07/09 09:56:59;;;;;;;4.90;3.20;;;;;;;18.89;72.22;99285.45;109386;1274;22676;-70
2022/07/09 09:59:26;;;;;;;5.50;3.40;;;;;;;18.91;72.61;99283.54;109439;1273;22624;-70
2022/07/09 10:01:53;;;;;;;4.40;3.00;;;;;;;18.92;72.65;99290.95;109289;1274;138410;-70
2022/07/09 10:04:21;;;;;;;3.00;2.60;;;;;;;18.92;72.48;99287.64;109215;1274;22439;-70
2022/07/09 10:06:48;;;;;;;3.00;2.50;;;;;;;18.92;72.50;99292.38;109213;1274;138475;-70
2022/07/09 10:09:15;;;;;;;4.60;2.40;;;;;;;18.91;72.22;99292.05;109418;1274;23135;-71
2022/07/09 10:11:46;;;;;;;4.00;2.50;;;;;;;18.89;71.76;99293.10;109354;1274;22434;-71
2022/07/09 10:14:28;;;;;;;4.40;2.50;;;;;;;18.87;71.93;99289.90;107884;1274;138452;-71
2022/07/09 10:16:55;;;;;;;5.70;2.30;;;;;;;18.86;72.02;99292.08;105209;1273;24362;-69
2022/07/09 10:19:29;;;;;;;168.90;124.50;;;;;;;18.85;72.11;99293.04;105068;1274;138753;-69
2022/07/09 10:21:57;;;;;;;5.00;3.90;;;;;;;18.85;72.22;99302.27;105193;1273;22590;-69
2022/07/09 10:24:31;;;;;;;4.20;2.80;;;;;;;18.82;71.89;99297.05;109265;1274;138432;-68
2022/07/09 10:27:08;;;;;;;3.60;2.10;;;;;;;18.78;72.31;99293.72;109306;1274;23250;-68
2022/07/09 10:29:54;;;;;;;4.60;2.10;;;;;;;18.74;72.15;99289.65;109314;1274;22483;-68
2022/07/09 10:32:31;;;;;;;4.50;2.60;;;;;;;18.70;72.47;99286.87;109244;1274;139962;-69
2022/07/09 10:35:02;;;;;;;;;;;;;;;18.68;72.96;99283.89;109472;1273;23389;-68
2022/07/09 10:37:40;;;;;;;4.50;2.80;;;;;;;18.65;73.55;99289.92;109535;1274;124265;-69
2022/07/09 10:40:14;;;;;;;5.60;2.80;;;;;;;18.64;73.58;99295.91;109874;1274;22763;-69
2022/07/09 10:42:43;;;;;;;3.30;2.80;;;;;;;18.62;73.91;99298.55;107087;1274;138352;-69
2022/07/09 10:45:23;;;;;;;4.40;2.60;;;;;;;18.61;74.18;99301.62;105487;1274;23194;-68
2022/07/09 10:47:58;;;;;;;4.30;2.50;;;;;;;18.63;74.52;99300.52;105374;1274;22583;-69
2022/07/09 10:50:25;;;;;;;2.40;2.20;;;;;;;18.66;74.14;99303.52;109288;1274;139015;-69
2022/07/09 10:52:52;;;;;;;8.20;5.70;;;;;;;18.68;73.96;99307.80;109408;1274;22923;-72
2022/07/09 10:55:20;;;;;;;9.20;5.20;;;;;;;18.69;73.94;99310.08;109216;1274;138364;-70
2022/07/09 10:57:49;;;;;;;2.60;2.20;;;;;;;18.71;73.67;99310.70;109296;1274;22464;-68
2022/07/09 11:00:17;;;;;;;4.30;3.10;;;;;;;18.71;73.61;99315.88;109309;1273;138185;-66
2022/07/09 11:03:10;;;;;;;6.40;2.60;;;;;;;18.73;73.57;99314.20;109355;1274;22458;-68
2022/07/09 11:05:44;;;;;;;3.00;2.30;;;;;;;18.73;73.41;99306.96;109402;1274;22466;-67
2022/07/09 11:08:10;;;;;;;4.10;2.30;;;;;;;18.75;73.41;99307.75;109295;1274;140848;-69
2022/07/09 11:10:38;;;;;;;5.10;2.10;;;;;;;18.76;73.07;99305.50;109448;1273;23081;-68
2022/07/09 11:13:06;;;;;;;3.40;2.40;;;;;;;18.78;73.25;99306.36;109312;1274;137967;-66
2022/07/09 11:15:33;;;;;;;2.90;2.30;;;;;;;18.79;72.57;99305.18;109351;1274;22430;-67
2022/07/09 11:18:01;;;;;;;330.30;275.20;;;;;;;18.78;72.48;99305.15;109486;1273;22413;-70
2022/07/09 11:20:29;;;;;;;19.70;9.40;;;;;;;18.80;72.71;99303.10;109308;1273;138965;-70
2022/07/09 11:22:56;;;;;;;5.60;3.50;;;;;;;18.82;72.77;99305.42;109345;1274;22261;-67
2022/07/09 11:25:26;;;;;;;4.40;3.00;;;;;;;18.85;72.46;99304.47;109244;1274;138305;-67
2022/07/09 11:27:57;;;;;;;4.90;2.70;;;;;;;18.86;72.34;99300.59;109385;1273;22764;-67